.
WxDataArchive / Data Records for 2011-10-31
2011-10-30 October 2011 2011-11-01

Data Records for Monday, 31 October 2011

Time	Temp	Chill	HIndex	Humid	Dewpt	 Wind 	HiWind	WindDir	Rain 	Barom 
-----	----	-----	------	-----	-----	------	------	-------	-----	----- 
00:00	49.1	49.1	49.1	53	32.7	0	2	112	0.00	30.082 
00:05	49.1	49.1	49.1	53	32.7	0	1	112	0.00	30.082 
00:10	48.9	48.9	48.9	54	33.0	0	1	112	0.00	30.082 
00:15	48.8	48.8	48.8	54	32.9	0	1	112	0.00	30.076 
00:20	48.8	48.8	48.8	54	32.9	0	0	---	0.00	30.076 
00:25	48.6	48.6	48.6	55	33.2	0	0	---	0.00	30.076 
00:30	48.3	48.3	48.3	55	32.9	0	0	---	0.00	30.073 
00:35	48.2	48.2	48.2	55	32.8	0	0	---	0.00	30.073 
00:40	48.0	48.0	48.0	58	33.9	0	0	---	0.00	30.073 
00:45	47.6	47.6	47.6	59	34.0	0	0	---	0.00	30.068 
00:50	47.4	47.4	47.4	59	33.8	0	0	---	0.00	30.068 
00:55	47.1	47.1	47.1	59	33.5	0	0	---	0.00	30.068 
01:00	47.1	47.1	47.1	59	33.5	0	0	---	0.00	30.063 
01:05	47.0	47.0	47.0	59	33.4	0	0	---	0.00	30.063 
01:10	47.0	47.0	47.0	58	33.0	0	0	---	0.00	30.063 
01:15	47.0	47.0	47.0	58	33.0	0	0	---	0.00	30.061 
01:20	47.0	47.0	47.0	58	33.0	0	0	---	0.00	30.061 
01:25	46.8	46.8	46.8	60	33.7	0	0	---	0.00	30.061 
01:30	46.5	46.5	46.5	60	33.4	0	0	---	0.00	30.061 
01:35	46.4	46.4	46.4	61	33.7	0	0	---	0.00	30.061 
01:40	46.2	46.2	46.2	62	33.9	0	0	---	0.00	30.061 
01:45	46.1	46.1	46.1	63	34.2	0	0	---	0.00	30.058 
01:50	46.0	46.0	46.0	65	34.9	0	0	---	0.00	30.058 
01:55	45.8	45.8	45.8	64	34.3	0	0	---	0.00	30.058 
02:00	45.7	45.7	45.7	64	34.2	0	1	112	0.00	30.049 
02:05	45.7	45.7	45.7	64	34.2	0	1	112	0.00	30.049 
02:10	45.8	45.8	45.8	65	34.7	0	1	112	0.00	30.049 
02:15	45.8	45.8	45.8	64	34.3	0	0	---	0.00	30.044 
02:20	45.8	45.8	45.8	63	33.9	0	0	---	0.00	30.044 
02:25	45.8	45.8	45.8	62	33.5	0	0	---	0.00	30.044 
02:30	46.0	46.0	46.0	62	33.7	0	1	112	0.00	30.041 
02:35	46.1	46.1	46.1	61	33.4	0	2	112	0.00	30.041 
02:40	46.2	46.2	46.2	60	33.1	0	2	112	0.00	30.041 
02:45	46.4	46.4	46.4	59	32.9	0	1	112	0.00	30.039 
02:50	46.7	46.7	46.7	58	32.7	0	2	112	0.00	30.039 
02:55	46.8	46.8	46.8	58	32.8	0	2	112	0.00	30.039 
03:00	47.0	47.0	47.0	56	32.1	0	3	112	0.00	30.029 
03:05	47.3	47.3	47.3	55	32.0	1	4	90	0.00	30.029 
03:10	47.6	47.6	47.6	55	32.2	0	4	90	0.00	30.029 
03:15	47.7	47.7	47.7	55	32.3	1	3	90	0.00	30.027 
03:20	47.9	47.9	47.9	54	32.1	1	4	90	0.00	30.027 
03:25	47.9	47.9	47.9	54	32.1	1	4	90	0.00	30.027 
03:30	48.0	48.0	48.0	54	32.2	0	3	112	0.00	30.023 
03:35	48.0	48.0	48.0	54	32.2	1	3	90	0.00	30.023 
03:40	48.0	48.0	48.0	54	32.2	1	3	90	0.00	30.023 
03:45	48.0	48.0	48.0	53	31.7	1	5	90	0.00	30.021 
03:50	48.0	48.0	48.0	53	31.7	2	5	90	0.00	30.021 
03:55	48.0	48.0	48.0	52	31.2	2	6	112	0.00	30.021 
04:00	48.0	48.0	48.0	52	31.2	1	5	112	0.00	30.016 
04:05	48.0	48.0	48.0	52	31.2	2	6	90	0.00	30.016 
04:10	48.0	48.0	48.0	52	31.2	1	3	68	0.00	30.016 
04:15	47.9	47.9	47.9	53	31.6	0	3	68	0.00	30.014 
04:20	47.9	47.9	47.9	53	31.6	0	3	68	0.00	30.014 
04:25	47.7	47.7	47.7	53	31.4	1	4	112	0.00	30.014 
04:30	47.7	47.7	47.7	54	31.9	0	1	112	0.00	30.011 
04:35	47.6	47.6	47.6	54	31.8	0	1	112	0.00	30.011 
04:40	47.4	47.4	47.4	54	31.6	0	4	112	0.00	30.011 
04:45	47.3	47.3	47.3	54	31.5	0	2	112	0.00	30.007 
04:50	47.3	47.3	47.3	54	31.5	0	3	112	0.00	30.007 
04:55	47.3	47.3	47.3	55	32.0	0	2	112	0.00	30.007 
05:00	47.3	47.3	47.3	54	31.5	1	5	90	0.00	30.007 
05:05	47.3	47.3	47.3	54	31.5	0	2	90	0.00	30.007 
05:10	47.1	47.1	47.1	55	31.8	0	2	90	0.00	30.007 
05:15	47.1	47.1	47.1	55	31.8	1	3	90	0.00	30.004 
05:20	47.0	47.0	47.0	55	31.7	1	4	90	0.00	30.004 
05:25	47.0	47.0	47.0	55	31.7	0	2	112	0.00	30.004 
05:30	46.8	46.8	46.8	56	31.9	0	2	112	0.00	30.005 
05:35	46.7	46.7	46.7	56	31.8	0	3	112	0.00	30.005 
05:40	46.7	46.7	46.7	56	31.8	0	3	112	0.00	30.005 
05:45	46.7	46.7	46.7	56	31.8	0	2	112	0.00	30.004 
05:50	46.5	46.5	46.5	57	32.1	0	1	112	0.00	30.004 
05:55	46.5	46.5	46.5	58	32.5	0	2	315	0.00	30.004 
06:00	46.5	46.5	46.5	59	33.0	1	3	292	0.00	30.007 
06:05	46.7	46.7	46.7	61	34.0	1	5	292	0.00	30.007 
06:10	46.7	46.7	46.7	65	35.6	1	3	248	0.00	30.007 
06:15	46.4	46.4	46.4	68	36.4	0	3	225	0.00	30.008 
06:20	46.1	46.1	46.1	69	36.5	0	1	225	0.00	30.008 
06:25	46.0	46.0	46.0	71	37.1	0	1	225	0.00	30.008 
06:30	45.7	45.7	45.7	72	37.2	0	0	---	0.00	30.008 
06:35	45.5	45.5	45.5	73	37.4	0	0	---	0.00	30.008 
06:40	45.4	45.4	45.4	73	37.3	0	0	---	0.00	30.008 
06:45	45.2	45.2	45.2	73	37.1	0	0	---	0.00	30.009 
06:50	45.1	45.1	45.1	74	37.3	0	0	---	0.00	30.009 
06:55	45.1	45.1	45.1	75	37.7	0	1	225	0.00	30.009 
07:00	44.9	44.9	44.9	75	37.5	0	1	225	0.00	30.010 
07:05	44.9	44.9	44.9	76	37.8	0	1	225	0.00	30.010 
07:10	45.1	45.1	45.1	77	38.3	0	2	225	0.00	30.010 
07:15	45.1	45.1	45.1	78	38.7	0	4	68	0.00	30.008 
07:20	45.1	45.1	45.1	80	39.3	0	4	112	0.00	30.008 
07:25	45.1	45.1	45.1	81	39.6	0	1	112	0.00	30.008 
07:30	44.9	44.9	44.9	82	39.7	0	4	315	0.00	30.010 
07:35	44.8	44.8	44.8	82	39.6	0	1	292	0.00	30.010 
07:40	44.6	44.6	44.6	83	39.8	0	1	292	0.01	30.010 
07:45	44.6	44.6	44.6	84	40.1	0	1	292	0.00	30.011 
07:50	44.5	44.5	44.5	84	40.0	0	1	292	0.00	30.011 
07:55	44.5	44.5	44.5	84	40.0	0	1	292	0.00	30.011 
08:00	44.3	44.3	44.3	85	40.1	0	0	---	0.00	30.013 
08:05	44.3	44.3	44.3	86	40.4	0	0	---	0.00	30.013 
08:10	44.2	44.2	44.2	86	40.3	0	1	292	0.00	30.013 
08:15	44.2	44.2	44.2	86	40.3	0	2	90	0.00	30.015 
08:20	44.2	44.2	44.2	85	40.0	0	2	90	0.00	30.015 
08:25	44.2	44.2	44.2	85	40.0	0	4	90	0.00	30.015 
08:30	44.2	44.2	44.2	84	39.7	0	2	90	0.00	30.016 
08:35	44.2	44.2	44.2	84	39.7	0	1	90	0.00	30.016 
08:40	44.1	44.1	44.1	84	39.6	0	1	90	0.00	30.016 
08:45	44.2	44.2	44.2	84	39.7	0	2	90	0.00	30.021 
08:50	44.2	44.2	44.2	84	39.7	0	2	90	0.00	30.021 
08:55	44.2	44.2	44.2	85	40.0	0	2	90	0.00	30.021 
09:00	44.1	44.1	44.1	85	39.9	0	2	90	0.00	30.026 
09:05	44.1	44.1	44.1	86	40.2	0	1	90	0.00	30.026 
09:10	44.1	44.1	44.1	86	40.2	0	2	90	0.00	30.026 
09:15	44.1	44.1	44.1	86	40.2	0	1	90	0.00	30.027 
09:20	44.1	44.1	44.1	86	40.2	0	1	90	0.00	30.027 
09:25	44.1	44.1	44.1	86	40.2	0	2	90	0.00	30.027 
09:30	44.1	44.1	44.1	87	40.5	0	1	90	0.00	30.032 
09:35	44.1	44.1	44.1	87	40.5	0	1	90	0.00	30.032 
09:40	44.1	44.1	44.1	87	40.5	0	0	---	0.00	30.032 
09:45	44.1	44.1	44.1	87	40.5	0	0	---	0.00	30.036 
09:50	44.1	44.1	44.1	87	40.5	0	1	90	0.00	30.036 
09:55	44.1	44.1	44.1	87	40.5	0	2	90	0.00	30.036 
10:00	44.1	44.1	44.1	88	40.8	0	2	68	0.00	30.037 
10:05	44.2	44.2	44.2	88	40.9	0	1	68	0.00	30.037 
10:10	44.2	44.2	44.2	88	40.9	0	1	68	0.00	30.037 
10:15	44.2	44.2	44.2	88	40.9	0	1	68	0.00	30.039 
10:20	44.2	44.2	44.2	89	41.2	0	1	68	0.00	30.039 
10:25	44.3	44.3	44.3	89	41.3	0	1	68	0.00	30.039 
10:30	44.3	44.3	44.3	89	41.3	0	0	---	0.00	30.041 
10:35	44.5	44.5	44.5	89	41.5	0	2	68	0.01	30.041 
10:40	44.5	44.5	44.5	89	41.5	0	2	68	0.00	30.041 
10:45	44.5	44.5	44.5	89	41.5	0	2	68	0.00	30.039 
10:50	44.5	44.5	44.5	90	41.8	0	1	68	0.00	30.039 
10:55	44.5	44.5	44.5	90	41.8	0	2	45	0.00	30.039 
11:00	44.5	44.5	44.5	90	41.8	0	1	45	0.00	30.041 
11:05	44.6	44.6	44.6	90	41.9	0	2	45	0.00	30.041 
11:10	44.9	44.9	44.9	90	42.1	0	0	---	0.00	30.041 
11:15	45.1	45.1	45.1	90	42.3	0	1	45	0.00	30.044 
11:20	45.2	45.2	45.2	90	42.4	0	2	45	0.00	30.044 
11:25	45.4	45.4	45.4	90	42.6	0	2	0	0.00	30.044 
11:30	45.7	45.7	45.7	89	42.6	0	2	0	0.00	30.045 
11:35	46.1	46.1	46.1	89	43.0	0	1	338	0.00	30.045 
11:40	46.2	46.2	46.2	87	42.5	1	3	338	0.00	30.045 
11:45	46.4	46.4	46.4	85	42.1	0	1	338	0.00	30.046 
11:50	46.5	46.5	46.5	84	41.9	0	2	338	0.00	30.046 
11:55	46.7	46.7	46.7	83	41.8	0	2	338	0.00	30.046 
12:00	46.8	46.8	46.8	82	41.6	1	2	315	0.00	30.052 
12:05	46.7	46.7	46.7	81	41.2	1	2	315	0.00	30.052 
12:10	46.7	46.7	46.7	81	41.2	1	3	248	0.00	30.052 
12:15	46.7	46.7	46.7	82	41.5	0	3	248	0.00	30.058 
12:20	46.4	46.4	46.4	82	41.2	1	4	248	0.00	30.058 
12:25	46.2	46.2	46.2	83	41.3	0	2	292	0.00	30.058 
12:30	46.2	46.2	46.2	84	41.6	1	2	292	0.00	30.060 
12:35	46.2	46.2	46.2	85	41.9	0	1	292	0.00	30.060 
12:40	46.1	46.1	46.1	85	41.8	0	2	292	0.00	30.060 
12:45	46.2	46.2	46.2	85	41.9	0	1	292	0.00	30.053 
12:50	46.2	46.2	46.2	84	41.6	0	2	292	0.00	30.053 
12:55	46.5	46.5	46.5	83	41.6	0	2	292	0.00	30.053 
13:00	47.0	47.0	47.0	82	41.8	0	2	292	0.00	30.053 
13:05	47.1	47.1	47.1	80	41.3	0	3	292	0.00	30.053 
13:10	47.4	47.4	47.4	80	41.5	0	2	292	0.00	30.053 
13:15	47.9	47.9	47.9	78	41.4	0	1	292	0.00	30.052 
13:20	48.8	48.8	48.8	78	42.2	0	2	292	0.00	30.052 
13:25	48.9	48.9	48.9	72	40.3	1	3	292	0.00	30.052 
13:30	49.1	49.1	49.1	72	40.5	1	2	338	0.00	30.047 
13:35	49.4	49.4	49.4	71	40.4	1	4	292	0.00	30.047 
13:40	49.6	49.6	49.6	71	40.6	1	2	292	0.00	30.047 
13:45	50.1	50.1	50.1	72	41.4	1	3	292	0.00	30.044 
13:50	50.4	50.4	50.4	70	41.0	1	5	292	0.00	30.044 
13:55	50.4	50.4	50.4	67	39.9	2	5	315	0.00	30.044 
14:00	50.1	50.1	50.1	66	39.2	1	2	338	0.00	30.044 
14:05	50.1	50.1	50.1	68	40.0	1	3	338	0.00	30.044 
14:10	50.2	50.2	50.2	69	40.4	1	4	270	0.00	30.044 
14:15	50.5	50.5	50.5	68	40.3	1	2	270	0.00	30.042 
14:20	51.1	51.1	51.1	68	40.9	1	5	270	0.00	30.042 
14:25	51.1	51.1	51.1	65	39.7	1	3	292	0.00	30.042 
14:30	51.3	51.3	51.3	66	40.3	1	3	292	0.00	30.040 
14:35	51.0	51.0	51.0	66	40.0	1	3	315	0.00	30.040 
14:40	51.3	51.3	51.3	66	40.3	0	2	315	0.00	30.040 
14:45	51.3	51.3	51.3	66	40.3	0	3	292	0.00	30.042 
14:50	51.3	51.3	51.3	66	40.3	0	2	292	0.00	30.042 
14:55	51.1	51.1	51.1	65	39.7	0	2	292	0.00	30.042 
15:00	51.3	51.3	51.3	62	38.7	1	4	292	0.00	30.047 
15:05	51.1	51.1	51.1	62	38.5	1	2	270	0.00	30.047 
15:10	51.0	51.0	51.0	62	38.4	2	4	292	0.00	30.047 
15:15	51.0	51.0	51.0	61	38.0	1	3	338	0.00	30.052 
15:20	50.8	50.8	50.8	61	37.8	1	2	338	0.00	30.052 
15:25	50.8	50.8	50.8	61	37.8	0	2	338	0.00	30.052 
15:30	51.0	51.0	51.0	61	38.0	1	3	338	0.00	30.053 
15:35	51.0	51.0	51.0	60	37.6	0	1	338	0.00	30.053 
15:40	51.1	51.1	51.1	61	38.1	0	2	338	0.00	30.053 
15:45	51.6	51.6	51.6	59	37.7	0	2	338	0.00	30.052 
15:50	52.3	52.3	52.3	58	38.0	1	3	338	0.00	30.052 
15:55	52.9	52.9	52.9	54	36.7	1	3	248	0.00	30.052 
16:00	53.3	53.3	53.3	53	36.6	1	4	248	0.00	30.052 
16:05	53.5	53.5	53.5	53	36.8	1	3	248	0.00	30.052 
16:10	53.6	53.6	53.6	53	36.9	1	3	248	0.00	30.052 
16:15	53.5	53.5	53.5	52	36.3	1	3	248	0.00	30.053 
16:20	53.5	53.5	53.5	52	36.3	1	2	248	0.00	30.053 
16:25	53.5	53.5	53.5	51	35.8	0	2	248	0.00	30.053 
16:30	53.3	53.3	53.3	54	37.1	0	2	248	0.00	30.056 
16:35	53.1	53.1	53.1	51	35.5	0	2	248	0.00	30.056 
16:40	52.8	52.8	52.8	51	35.2	0	1	0	0.00	30.056 
16:45	52.6	52.6	52.6	52	35.5	0	2	0	0.00	30.058 
16:50	52.6	52.6	52.6	52	35.5	0	1	0	0.00	30.058 
16:55	52.8	52.8	52.8	51	35.2	0	1	0	0.00	30.058 
17:00	52.8	52.8	52.8	51	35.2	0	1	0	0.00	30.066 
17:05	52.6	52.6	52.6	50	34.5	0	1	0	0.00	30.066 
17:10	52.5	52.5	52.5	49	33.9	0	2	0	0.00	30.066 
17:15	52.5	52.5	52.5	49	33.9	0	1	0	0.00	30.069 
17:20	52.5	52.5	52.5	49	33.9	0	2	0	0.00	30.069 
17:25	52.2	52.2	52.2	49	33.6	0	1	0	0.00	30.069 
17:30	51.9	51.9	51.9	50	33.9	0	1	0	0.00	30.072 
17:35	51.7	51.7	51.7	50	33.7	0	0	---	0.00	30.072 
17:40	51.6	51.6	51.6	51	34.1	0	1	0	0.00	30.072 
17:45	51.6	51.6	51.6	50	33.6	0	1	0	0.00	30.072 
17:50	51.4	51.4	51.4	51	33.9	0	0	---	0.00	30.072 
17:55	51.4	51.4	51.4	51	33.9	0	0	---	0.00	30.072 
18:00	51.3	51.3	51.3	52	34.3	0	0	---	0.00	30.080 
18:05	51.0	51.0	51.0	52	34.0	0	0	---	0.00	30.080 
18:10	50.7	50.7	50.7	52	33.7	0	0	---	0.00	30.080 
18:15	50.4	50.4	50.4	52	33.4	0	0	---	0.00	30.088 
18:20	50.1	50.1	50.1	54	34.1	0	0	---	0.00	30.088 
18:25	49.6	49.6	49.6	55	34.1	0	0	---	0.00	30.088 
18:30	49.2	49.2	49.2	57	34.6	0	0	---	0.00	30.092 
18:35	48.6	48.6	48.6	58	34.5	0	0	---	0.00	30.092 
18:40	48.2	48.2	48.2	59	34.6	0	0	---	0.00	30.092 
18:45	47.7	47.7	47.7	60	34.5	0	0	---	0.00	30.105 
18:50	47.1	47.1	47.1	62	34.8	0	0	---	0.00	30.105 
18:55	46.7	46.7	46.7	64	35.2	0	0	---	0.00	30.105 
19:00	46.1	46.1	46.1	65	35.0	0	0	---	0.00	30.111 
19:05	45.5	45.5	45.5	66	34.8	0	0	---	0.00	30.111 
19:10	45.1	45.1	45.1	67	34.8	0	0	---	0.00	30.111 
19:15	44.6	44.6	44.6	70	35.4	0	0	---	0.00	30.115 
19:20	44.2	44.2	44.2	70	35.0	0	0	---	0.00	30.115 
19:25	43.9	43.9	43.9	70	34.8	0	0	---	0.00	30.115 
19:30	43.5	43.5	43.5	71	34.7	0	0	---	0.00	30.124 
19:35	43.1	43.1	43.1	71	34.3	0	0	---	0.00	30.124 
19:40	42.8	42.8	42.8	74	35.1	0	0	---	0.00	30.124 
19:45	42.5	42.5	42.5	75	35.1	0	0	---	0.00	30.133 
19:50	42.2	42.2	42.2	75	34.9	0	0	---	0.00	30.133 
19:55	41.8	41.8	41.8	76	34.8	0	0	---	0.00	30.133 
20:00	41.5	41.5	41.5	76	34.5	0	0	---	0.00	30.140 
20:05	41.2	41.2	41.2	77	34.5	0	0	---	0.00	30.140 
20:10	41.1	41.1	41.1	78	34.8	0	0	---	0.00	30.140 
20:15	40.8	40.8	40.8	78	34.5	0	0	---	0.00	30.145 
20:20	40.6	40.6	40.6	79	34.6	0	0	---	0.00	30.145 
20:25	40.3	40.3	40.3	80	34.6	0	0	---	0.00	30.145 
20:30	40.2	40.2	40.2	81	34.8	0	0	---	0.00	30.146 
20:35	39.9	39.9	39.9	81	34.6	0	0	---	0.00	30.146 
20:40	39.8	39.8	39.8	81	34.5	0	0	---	0.00	30.146 
20:45	39.5	39.5	39.5	82	34.5	0	0	---	0.00	30.150 
20:50	39.3	39.3	39.3	82	34.3	0	0	---	0.00	30.150 
20:55	39.1	39.1	39.1	83	34.4	0	0	---	0.00	30.150 
21:00	38.9	38.9	38.9	83	34.2	0	0	---	0.00	30.155 
21:05	38.6	38.6	38.6	83	33.9	0	0	---	0.00	30.155 
21:10	38.5	38.5	38.5	84	34.1	0	0	---	0.00	30.155 
21:15	38.3	38.3	38.3	84	33.9	0	0	---	0.00	30.153 
21:20	38.0	38.0	38.0	85	33.9	0	0	---	0.00	30.153 
21:25	37.9	37.9	37.9	85	33.8	0	0	---	0.00	30.153 
21:30	37.8	37.8	37.8	85	33.7	0	0	---	0.00	30.155 
21:35	37.6	37.6	37.6	85	33.5	0	0	---	0.00	30.155 
21:40	37.5	37.5	37.5	85	33.4	0	0	---	0.00	30.155 
21:45	37.3	37.3	37.3	86	33.5	0	0	---	0.00	30.162 
21:50	37.2	37.2	37.2	86	33.4	0	0	---	0.00	30.162 
21:55	37.0	37.0	37.0	87	33.5	0	0	---	0.00	30.162 
22:00	36.9	36.9	36.9	87	33.4	0	0	---	0.00	30.165 
22:05	36.8	36.8	36.8	87	33.3	0	0	---	0.00	30.165 
22:10	36.8	36.8	36.8	87	33.3	0	0	---	0.00	30.165 
22:15	36.6	36.6	36.6	87	33.1	0	0	---	0.00	30.166 
22:20	36.5	36.5	36.5	87	33.0	0	0	---	0.00	30.166 
22:25	36.3	36.3	36.3	88	33.1	0	0	---	0.00	30.166 
22:30	36.2	36.2	36.2	88	33.0	0	0	---	0.00	30.175 
22:35	36.2	36.2	36.2	88	33.0	0	0	---	0.00	30.175 
22:40	36.0	36.0	36.0	88	32.8	0	0	---	0.00	30.175 
22:45	35.9	35.9	35.9	88	32.7	0	0	---	0.00	30.174 
22:50	35.8	35.8	35.8	88	32.6	0	0	---	0.00	30.174 
22:55	35.6	35.6	35.6	88	32.4	0	0	---	0.00	30.174 
23:00	35.6	35.6	35.6	88	32.4	0	0	---	0.00	30.178 
23:05	35.5	35.5	35.5	88	32.3	0	0	---	0.00	30.178 
23:10	35.5	35.5	35.5	89	32.6	0	0	---	0.00	30.178 
23:15	35.3	35.3	35.3	89	32.4	0	0	---	0.00	30.178 
23:20	35.3	35.3	35.3	89	32.4	0	0	---	0.00	30.178 
23:25	35.2	35.2	35.2	89	32.3	0	0	---	0.00	30.178 
23:30	35.2	35.2	35.2	89	32.3	0	0	---	0.00	30.181 
23:35	35.0	35.0	35.0	89	32.1	0	0	---	0.00	30.181 
23:40	34.9	34.9	34.9	90	32.3	0	0	---	0.01	30.181 
23:45	34.9	34.9	34.9	90	32.3	0	0	---	0.00	30.183 
23:50	34.7	34.7	34.7	90	32.1	0	0	---	0.00	30.183 
23:55	34.7	34.7	34.7	90	32.1	0	0	---	0.00	30.183 

CoCoRaHS
IN-AL-39
A2 Web Hosting
Creative Commons License
GoDaddy
search engine by freefind advanced

loaded 2018-11-17 00:18:14 • last modified 2010-11-18 10:43:29
Privacy PolicyDisclaimer
• wx.awcolley.com is powered by PmWiki v.2002016 •
• all content (unless otherwise noted) © 2018 A W Colley